Time;durP1;ratioP1;P1;durP2;ratioP2;P2;SDS_P1;SDS_P2;PMS_P1;PMS_P2;Temp;Humidity;BMP_temperature;BMP_pressure;BME280_temperature;BME280_humidity;BME280_pressure;Samples;Min_cycle;Max_cycle;Signal;HPM_P1;HPM_P2
2022/12/10 00:00:00;;;;;;;19.65;12.70;;;3.90;99.90;4.10;98308.00;;;;345463;28;85816;-88
2022/12/10 00:00:14;;;;;;;20.13;12.48;;;3.90;99.90;4.10;98325.00;;;;344056;28;90558;-87
2022/12/10 00:00:25;;;;;;;21.00;12.10;;;3.80;99.90;4.10;98312.00;;;;341549;28;84453;-87
2022/12/10 00:00:37;;;;;;;21.20;12.77;;;3.90;99.90;4.20;98310.00;;;;343738;28;91671;-88
2022/12/10 00:00:49;;;;;;;20.48;12.77;;;3.90;99.90;4.30;98317.00;;;;342883;28;87277;-88
2022/12/10 00:01:11;;;;;;;17.60;11.90;;;3.90;99.90;4.30;98314.00;;;;343903;28;93057;-88
2022/12/10 00:01:24;;;;;;;16.98;11.25;;;3.90;99.90;4.30;98326.00;;;;342748;28;87750;-87
2022/12/10 00:01:36;;;;;;;16.63;11.40;;;3.90;99.90;4.40;98319.00;;;;345435;28;90825;-88
2022/12/10 00:01:49;;;;;;;17.00;11.85;;;3.90;99.90;4.30;98320.00;;;;344234;28;87016;-88
2022/12/10 00:02:01;;;;;;;17.25;12.10;;;3.90;99.90;4.20;98326.00;;;;344075;28;92063;-88
2022/12/10 00:02:12;;;;;;;18.77;12.85;;;4.00;99.90;4.10;98317.00;;;;343049;28;86029;-87
2022/12/10 00:02:24;;;;;;;20.00;13.48;;;3.90;99.90;4.20;98323.00;;;;342667;28;89385;-87
2022/12/10 00:02:36;;;;;;;20.00;13.23;;;3.90;99.90;4.20;98319.00;;;;342832;28;87214;-87
2022/12/10 00:02:48;;;;;;;18.38;12.27;;;3.90;99.90;4.30;98324.00;;;;341187;28;92134;-87
2022/12/10 00:03:01;;;;;;;19.98;12.55;;;4.00;99.90;4.40;98322.00;;;;342998;28;86100;-87
2022/12/10 00:03:12;;;;;;;19.15;11.82;;;4.00;99.90;4.30;98331.00;;;;343832;28;92670;-87
2022/12/10 00:03:24;;;;;;;19.15;11.30;;;4.00;99.90;4.20;98315.00;;;;341590;28;86267;-87
2022/12/10 00:03:36;;;;;;;20.00;11.73;;;4.00;99.90;4.10;98331.00;;;;345187;28;90800;-87
2022/12/10 00:03:48;;;;;;;20.95;13.00;;;4.00;99.90;4.20;98317.00;;;;347037;28;87352;-87
2022/12/10 00:04:00;;;;;;;19.64;12.82;;;4.00;99.90;4.20;98322.00;;;;342665;28;92046;-88
2022/12/10 00:04:12;;;;;;;19.27;12.50;;;4.00;99.90;4.20;98325.00;;;;342738;28;86166;-88
2022/12/10 00:04:24;;;;;;;19.65;12.52;;;3.90;99.90;4.20;98322.00;;;;344031;28;91181;-87
2022/12/10 00:04:35;;;;;;;20.60;12.93;;;3.90;99.90;4.20;98327.00;;;;342855;28;86139;-87
2022/12/10 00:04:47;;;;;;;19.63;12.95;;;3.90;99.90;4.20;98320.00;;;;344079;28;89613;-87
2022/12/10 00:05:00;;;;;;;19.38;12.30;;;3.90;99.90;4.20;98321.00;;;;344167;28;86701;-87
2022/12/10 00:05:12;;;;;;;20.55;12.30;;;3.90;99.90;4.30;98328.00;;;;343605;28;92930;-87
2022/12/10 00:05:23;;;;;;;19.50;11.70;;;3.90;99.90;4.20;98329.00;;;;344281;28;85955;-87
2022/12/10 00:05:36;;;;;;;19.00;11.52;;;3.90;99.90;4.20;98322.00;;;;342701;28;90564;-87
2022/12/10 00:05:48;;;;;;;20.35;11.85;;;3.90;99.90;4.20;98323.00;;;;344164;28;86278;-87
2022/12/10 00:06:01;;;;;;;20.08;11.63;;;3.90;99.90;4.20;98331.00;;;;344001;28;91604;-87
2022/12/10 00:06:16;;;;;;;19.13;11.93;;;3.90;99.90;4.20;98328.00;;;;342522;28;87287;-88
2022/12/10 00:06:33;;;;;;;18.55;12.15;;;3.90;99.90;4.20;98320.00;;;;345315;28;91736;-87
2022/12/10 00:06:45;;;;;;;19.85;12.55;;;3.90;99.90;4.20;98317.00;;;;343005;28;85325;-88
2022/12/10 00:06:57;;;;;;;19.50;12.20;;;3.80;99.90;4.20;98320.00;;;;343901;28;92414;-88
2022/12/10 00:07:08;;;;;;;20.38;12.27;;;3.80;99.90;4.20;98323.00;;;;344293;28;87459;-87
2022/12/10 00:07:20;;;;;;;17.67;11.35;;;3.80;99.90;4.10;98322.00;;;;341151;28;91471;-87
2022/12/10 00:07:32;;;;;;;17.27;11.50;;;3.80;99.90;4.20;98322.00;;;;342943;28;87043;-87
2022/12/10 00:07:44;;;;;;;17.56;12.00;;;3.90;99.90;4.20;98324.00;;;;343997;28;91966;-87
2022/12/10 00:07:56;;;;;;;21.20;13.20;;;3.80;99.90;4.30;98324.00;;;;342689;28;86658;-88
2022/12/10 00:08:08;;;;;;;20.48;12.85;;;3.80;99.90;4.20;98327.00;;;;344034;28;90388;-88
2022/12/10 00:08:20;;;;;;;21.30;12.57;;;3.80;99.90;4.20;98334.00;;;;345618;28;87425;-88
2022/12/10 00:08:31;;;;;;;19.02;12.60;;;3.80;99.90;4.10;98335.00;;;;342686;28;89390;-87
2022/12/10 00:08:43;;;;;;;20.13;12.48;;;3.80;99.90;4.20;98338.00;;;;344359;28;85720;-87
2022/12/10 00:08:55;;;;;;;20.23;12.55;;;3.80;99.90;4.20;98325.00;;;;342710;28;89388;-87
2022/12/10 00:09:13;;;;;;;20.73;12.43;;;3.80;99.90;4.20;98322.00;;;;342966;28;87186;-87
2022/12/10 00:09:25;;;;;;;18.60;11.93;;;3.80;99.90;4.20;98329.00;;;;340629;28;92255;-87
2022/12/10 00:09:37;;;;;;;17.92;11.35;;;3.80;99.90;4.20;98331.00;;;;341606;28;86668;-88
2022/12/10 00:09:49;;;;;;;16.70;11.45;;;3.80;99.90;4.10;98337.00;;;;340867;28;90764;-87
2022/12/10 00:10:01;;;;;;;16.65;11.98;;;3.80;99.90;4.20;98329.00;;;;341606;28;87263;-88
2022/12/10 00:10:21;;;;;;;19.58;12.13;;;3.80;99.90;4.20;98337.00;;;;341309;28;91266;-87
2022/12/10 00:10:33;;;;;;;19.52;11.60;;;3.80;99.90;4.10;98343.00;;;;341327;28;85709;-88
2022/12/10 00:10:44;;;;;;;18.83;11.90;;;3.80;99.90;4.10;98337.00;;;;342442;28;90945;-88
2022/12/10 00:10:56;;;;;;;18.67;12.80;;;3.80;99.90;4.20;98331.00;;;;342920;28;85786;-88
2022/12/10 00:11:10;;;;;;;18.83;13.10;;;3.80;99.90;4.30;98339.00;;;;342478;28;92026;-87
2022/12/10 00:11:22;;;;;;;20.40;12.75;;;3.80;99.90;4.30;98333.00;;;;341599;28;87142;-87
2022/12/10 00:11:34;;;;;;;21.15;12.60;;;3.80;99.90;4.10;98331.00;;;;341181;28;92892;-87
2022/12/10 00:11:46;;;;;;;21.38;12.82;;;3.80;99.90;4.10;98347.00;;;;340275;28;86453;-87
2022/12/10 00:11:58;;;;;;;21.17;13.48;;;3.80;99.90;4.00;98336.00;;;;339785;28;92411;-88
2022/12/10 00:12:10;;;;;;;21.90;14.00;;;3.80;99.90;4.00;98333.00;;;;341629;28;86005;-87
2022/12/10 00:12:21;;;;;;;21.73;14.18;;;3.80;99.90;4.00;98334.00;;;;341228;28;90699;-87
2022/12/10 00:12:33;;;;;;;22.00;14.27;;;3.80;99.90;4.00;98348.00;;;;341479;28;86487;-87
2022/12/10 00:12:45;;;;;;;21.58;13.70;;;3.80;99.90;4.10;98341.00;;;;342670;28;91872;-88
2022/12/10 00:12:57;;;;;;;22.08;13.38;;;3.80;99.90;4.20;98337.00;;;;341562;28;85874;-87
2022/12/10 00:13:09;;;;;;;21.42;12.75;;;3.80;99.90;4.20;98339.00;;;;339953;28;91528;-87
2022/12/10 00:13:20;;;;;;;20.63;12.73;;;3.80;99.90;4.20;98343.00;;;;341411;28;86041;-87
2022/12/10 00:13:33;;;;;;;20.45;13.07;;;3.80;99.90;4.20;98343.00;;;;339707;28;92762;-87
2022/12/10 00:13:45;;;;;;;21.80;13.82;;;3.80;99.90;4.10;98343.00;;;;341538;28;87746;-87
2022/12/10 00:13:57;;;;;;;23.92;14.30;;;3.80;99.90;4.20;98339.00;;;;338589;28;91178;-87
2022/12/10 00:14:09;;;;;;;23.13;13.48;;;3.80;99.90;4.20;98332.00;;;;341608;28;86016;-87
2022/12/10 00:14:21;;;;;;;21.85;12.77;;;3.80;99.90;4.00;98333.00;;;;341202;28;90831;-87
2022/12/10 00:14:33;;;;;;;18.65;11.75;;;3.80;99.90;4.00;98334.00;;;;342863;28;84818;-87
2022/12/10 00:14:45;;;;;;;18.27;11.70;;;3.80;99.90;4.10;98339.00;;;;341330;28;90480;-88
2022/12/10 00:14:57;;;;;;;18.83;11.77;;;3.80;99.90;4.10;98340.00;;;;338940;28;87196;-87
2022/12/10 00:15:09;;;;;;;20.67;12.65;;;3.80;99.90;4.10;98340.00;;;;339870;28;90844;-87
2022/12/10 00:15:21;;;;;;;19.60;12.30;;;3.80;99.90;4.10;98334.00;;;;342954;28;87028;-87
2022/12/10 00:15:35;;;;;;;19.52;12.70;;;3.80;99.90;4.00;98341.00;;;;339895;28;92211;-87
2022/12/10 00:15:47;;;;;;;20.27;13.63;;;3.70;99.90;4.00;98337.00;;;;342922;28;85171;-88
2022/12/10 00:16:01;;;;;;;21.08;13.55;;;3.70;99.90;4.10;98334.00;;;;342702;28;89051;-88
2022/12/10 00:16:15;;;;;;;19.27;12.88;;;3.70;99.90;4.20;98340.00;;;;341448;28;87054;-88
2022/12/10 00:16:27;;;;;;;19.70;12.38;;;3.70;99.90;4.20;98335.00;;;;343824;28;90892;-87
2022/12/10 00:16:41;;;;;;;21.27;13.15;;;3.70;99.90;4.20;98339.00;;;;341513;28;86314;-88
2022/12/10 00:16:53;;;;;;;20.48;13.27;;;3.80;99.90;4.20;98339.00;;;;344028;28;90986;-87
2022/12/10 00:17:05;;;;;;;19.48;12.98;;;3.80;99.90;4.20;98338.00;;;;340119;28;86364;-88
2022/12/10 00:17:23;;;;;;;21.35;12.35;;;3.70;99.90;4.10;98344.00;;;;339984;28;89498;-88
2022/12/10 00:17:35;;;;;;;21.55;12.32;;;3.70;99.90;4.10;98342.00;;;;341677;28;84784;-88
2022/12/10 00:17:47;;;;;;;19.27;11.98;;;3.70;99.90;4.00;98336.00;;;;339629;28;92088;-88
2022/12/10 00:17:58;;;;;;;19.33;11.75;;;3.70;99.90;4.10;98336.00;;;;341485;28;87062;-88
2022/12/10 00:18:10;;;;;;;17.48;11.50;;;3.70;99.90;3.90;98343.00;;;;341327;28;92003;-87
2022/12/10 00:18:22;;;;;;;18.10;11.95;;;3.70;99.90;3.90;98346.00;;;;341533;28;85175;-87
2022/12/10 00:18:34;;;;;;;19.80;12.82;;;3.70;99.90;4.00;98336.00;;;;339774;28;90933;-88
2022/12/10 00:18:46;;;;;;;20.92;13.23;;;3.70;99.90;4.10;98337.00;;;;341637;28;87017;-88
2022/12/10 00:18:58;;;;;;;20.48;12.93;;;3.70;99.90;4.00;98337.00;;;;338528;28;91292;-87
2022/12/10 00:19:10;;;;;;;20.02;13.00;;;3.70;99.90;4.00;98338.00;;;;340141;28;85991;-87
2022/12/10 00:19:22;;;;;;;20.42;13.32;;;3.70;99.90;4.10;98340.00;;;;341300;28;91025;-87
2022/12/10 00:19:34;;;;;;;19.98;12.65;;;3.70;99.90;4.00;98339.00;;;;338876;28;85922;-87
2022/12/10 00:19:46;;;;;;;20.33;12.57;;;3.70;99.90;4.10;98349.00;;;;339949;28;91478;-87
2022/12/10 00:19:58;;;;;;;21.60;12.85;;;3.70;99.90;4.10;98349.00;;;;341567;28;85719;-88
2022/12/10 00:20:10;;;;;;;20.52;12.15;;;3.70;99.90;4.10;98343.00;;;;342698;28;90685;-88
2022/12/10 00:20:22;;;;;;;19.05;11.82;;;3.70;99.90;4.00;98336.00;;;;340235;28;87205;-87
2022/12/10 00:20:36;;;;;;;19.30;11.63;;;3.70;99.90;4.00;98341.00;;;;341371;28;88405;-87
2022/12/10 00:20:48;;;;;;;19.00;11.65;;;3.70;99.90;4.00;98350.00;;;;342958;28;86165;-87
2022/12/10 00:21:06;;;;;;;19.85;12.27;;;3.70;99.90;4.00;98343.00;;;;341133;28;92122;-86
2022/12/10 00:21:22;;;;;;;20.55;13.13;;;3.60;99.90;4.00;98344.00;;;;341257;28;86100;-88
2022/12/10 00:21:35;;;;;;;19.13;12.43;;;3.60;99.90;4.00;98338.00;;;;341267;28;90766;-87
2022/12/10 00:21:47;;;;;;;19.40;12.18;;;3.70;99.90;4.00;98342.00;;;;338950;28;84798;-86
2022/12/10 00:21:59;;;;;;;20.38;12.50;;;3.70;99.90;3.90;98343.00;;;;341215;28;93271;-87
2022/12/10 00:22:11;;;;;;;19.35;12.48;;;3.70;99.90;4.00;98335.00;;;;340247;28;87384;-88
2022/12/10 00:22:22;;;;;;;18.40;12.10;;;3.70;99.90;4.00;98345.00;;;;339966;28;90773;-87
2022/12/10 00:22:34;;;;;;;18.38;11.93;;;3.70;99.90;3.90;98345.00;;;;340151;28;87033;-87
2022/12/10 00:22:46;;;;;;;18.52;12.38;;;3.70;99.90;3.80;98351.00;;;;339954;28;91591;-87
2022/12/10 00:22:58;;;;;;;17.90;12.95;;;3.60;99.90;3.90;98341.00;;;;341547;28;87300;-88
2022/12/10 00:23:10;;;;;;;18.17;12.93;;;3.60;99.90;3.90;98336.00;;;;339860;28;91588;-88
2022/12/10 00:23:22;;;;;;;19.38;12.50;;;3.60;99.90;3.90;98353.00;;;;342967;28;86065;-87
2022/12/10 00:23:35;;;;;;;20.58;12.35;;;3.70;99.90;4.00;98342.00;;;;341268;28;90567;-88
2022/12/10 00:23:46;;;;;;;22.58;12.82;;;3.60;99.90;3.80;98345.00;;;;341555;28;86949;-88
2022/12/10 00:23:58;;;;;;;20.35;12.73;;;3.60;99.90;3.80;98341.00;;;;343963;28;90594;-88
2022/12/10 00:24:11;;;;;;;19.63;12.15;;;3.60;99.90;3.90;98349.00;;;;340014;28;87181;-87
2022/12/10 00:24:22;;;;;;;19.23;11.70;;;3.60;99.90;3.90;98353.00;;;;341310;28;88273;-87
2022/12/10 00:24:34;;;;;;;17.65;11.02;;;3.60;99.90;3.90;98343.00;;;;341341;28;86261;-88
2022/12/10 00:24:46;;;;;;;18.58;11.90;;;3.60;99.90;3.90;98350.00;;;;338702;28;88476;-87
2022/12/10 00:24:58;;;;;;;18.05;12.35;;;3.60;99.90;3.90;98338.00;;;;340296;28;86648;-88
2022/12/10 00:25:10;;;;;;;19.80;13.55;;;3.50;99.90;3.90;98350.00;;;;339874;28;92138;-88
2022/12/10 00:25:22;;;;;;;19.67;12.77;;;3.60;99.90;3.90;98345.00;;;;341512;28;87284;-88
2022/12/10 00:25:33;;;;;;;18.55;11.82;;;3.60;99.90;4.00;98343.00;;;;341253;28;91495;-87
2022/12/10 00:25:45;;;;;;;18.77;11.88;;;3.50;99.90;4.00;98343.00;;;;341571;28;86162;-87
2022/12/10 00:26:13;;;;;;;20.65;12.77;;;3.50;99.90;4.00;98336.00;;;;341247;28;90969;-87
2022/12/10 00:26:32;;;;;;;17.73;11.95;;;3.50;99.90;3.90;98340.00;;;;342906;28;86285;-87
2022/12/10 00:26:45;;;;;;;20.48;12.98;;;3.60;99.90;4.00;98344.00;;;;340978;28;92152;-87
2022/12/10 00:26:57;;;;;;;20.23;13.05;;;3.50;99.90;4.00;98336.00;;;;341481;28;86556;-87
2022/12/10 00:27:09;;;;;;;19.45;12.65;;;3.50;99.90;4.00;98338.00;;;;339895;28;91724;-87
2022/12/10 00:27:21;;;;;;;21.88;13.52;;;3.60;99.90;3.80;98335.00;;;;340320;28;84864;-88
2022/12/10 00:27:33;;;;;;;23.02;14.23;;;3.50;99.90;3.80;98339.00;;;;341346;28;89798;-88
2022/12/10 00:27:45;;;;;;;22.75;13.90;;;3.50;99.90;3.90;98339.00;;;;343012;28;85694;-87
2022/12/10 00:27:56;;;;;;;19.73;13.05;;;3.50;99.90;3.80;98348.00;;;;341257;28;92406;-88
2022/12/10 00:28:08;;;;;;;19.60;12.95;;;3.50;99.90;3.80;98335.00;;;;342966;28;85822;-87
2022/12/10 00:28:20;;;;;;;19.60;13.18;;;3.50;99.90;3.70;98345.00;;;;341260;28;92891;-88
2022/12/10 00:28:32;;;;;;;20.72;14.12;;;3.40;99.90;3.70;98347.00;;;;342816;28;87055;-88
2022/12/10 00:28:46;;;;;;;21.08;13.68;;;3.40;99.90;3.70;98345.00;;;;341185;28;91783;-87
2022/12/10 00:29:00;;;;;;;19.35;12.20;;;3.40;99.90;3.70;98339.00;;;;339193;28;85955;-87
2022/12/10 00:29:11;;;;;;;18.63;12.45;;;3.40;99.90;3.70;98337.00;;;;339912;28;89880;-88
2022/12/10 00:29:23;;;;;;;18.88;12.57;;;3.40;99.90;3.80;98341.00;;;;341850;28;85828;-88
2022/12/10 00:29:35;;;;;;;20.17;12.88;;;3.40;99.90;3.90;98342.00;;;;341531;28;88959;-89
2022/12/10 00:29:47;;;;;;;20.08;12.00;;;3.40;99.90;3.80;98344.00;;;;341613;28;87267;-87
2022/12/10 00:29:59;;;;;;;21.25;12.40;;;3.40;99.90;3.70;98346.00;;;;341357;28;90978;-87
2022/12/10 00:30:11;;;;;;;22.42;12.45;;;3.40;99.90;3.80;98341.00;;;;341728;28;87083;-88
2022/12/10 00:30:23;;;;;;;22.23;12.77;;;3.40;99.90;3.80;98336.00;;;;341351;28;92792;-87
2022/12/10 00:30:35;;;;;;;21.05;12.50;;;3.40;99.90;3.90;98342.00;;;;340178;28;87105;-87
2022/12/10 00:30:47;;;;;;;19.63;12.63;;;3.40;99.90;3.90;98339.00;;;;340201;28;89402;-88
2022/12/10 00:31:07;;;;;;;20.02;12.98;;;3.40;99.90;3.90;98338.00;;;;340417;28;87390;-87
2022/12/10 00:31:28;;;;;;;19.05;12.15;;;3.40;99.90;3.90;98340.00;;;;339942;28;91712;-87
2022/12/10 00:31:40;;;;;;;20.77;12.27;;;3.40;99.90;3.80;98342.00;;;;343004;28;86684;-88
2022/12/10 00:31:52;;;;;;;20.75;12.65;;;3.50;99.90;3.70;98344.00;;;;342966;28;90908;-87
2022/12/10 00:32:05;;;;;;;19.42;12.88;;;3.50;99.90;3.50;98341.00;;;;343069;28;87265;-88
2022/12/10 00:32:17;;;;;;;18.73;12.75;;;3.40;99.90;3.50;98342.00;;;;341069;28;90840;-88
2022/12/10 00:32:29;;;;;;;19.45;12.38;;;3.40;99.90;3.60;98323.00;;;;341756;28;87067;-87
2022/12/10 00:32:41;;;;;;;19.90;12.30;;;3.40;99.90;3.70;98332.00;;;;342792;28;92557;-88
2022/12/10 00:32:53;;;;;;;20.70;12.75;;;3.40;99.90;3.60;98338.00;;;;341559;28;87203;-87
2022/12/10 00:33:05;;;;;;;20.38;12.63;;;3.40;99.90;3.60;98335.00;;;;342727;28;91875;-87
2022/12/10 00:33:16;;;;;;;20.08;12.50;;;3.30;99.90;3.60;98336.00;;;;341246;28;85169;-87
2022/12/10 00:33:28;;;;;;;21.15;13.18;;;3.30;99.90;3.70;98337.00;;;;341423;28;88222;-87
2022/12/10 00:33:41;;;;;;;21.42;13.60;;;3.30;99.90;3.70;98347.00;;;;340228;28;84528;-88
2022/12/10 00:33:55;;;;;;;20.85;13.93;;;3.30;99.90;3.60;98335.00;;;;341050;28;90566;-87
2022/12/10 00:34:08;;;;;;;20.08;13.98;;;3.30;99.90;3.70;98335.00;;;;341787;28;83632;-88
2022/12/10 00:34:20;;;;;;;19.13;13.02;;;3.30;99.90;3.70;98335.00;;;;341127;28;90632;-88
2022/12/10 00:34:32;;;;;;;18.63;12.23;;;3.20;99.90;3.70;98341.00;;;;341535;28;86162;-88
2022/12/10 00:34:44;;;;;;;19.05;12.48;;;3.30;99.90;3.70;98341.00;;;;342635;28;91671;-88
2022/12/10 00:34:56;;;;;;;19.38;12.60;;;3.30;99.90;3.60;98335.00;;;;341532;28;87190;-88
2022/12/10 00:35:08;;;;;;;21.67;12.80;;;3.30;99.90;3.60;98335.00;;;;341133;28;91129;-88
2022/12/10 00:35:20;;;;;;;20.08;12.28;;;3.20;99.90;3.40;98336.00;;;;341518;28;86179;-87
2022/12/10 00:35:35;;;;;;;20.38;13.10;;;3.20;99.90;3.40;98335.00;;;;339926;28;91931;-87
2022/12/10 00:35:47;;;;;;;22.23;13.57;;;3.20;99.90;3.40;98335.00;;;;340125;28;87019;-88
2022/12/10 00:36:04;;;;;;;21.67;13.02;;;3.20;99.90;3.50;98337.00;;;;341124;28;91312;-88
2022/12/10 00:36:19;;;;;;;19.77;12.90;;;3.20;99.90;3.50;98335.00;;;;342830;28;86210;-88
2022/12/10 00:36:38;;;;;;;22.77;13.57;;;3.20;99.90;3.60;98326.00;;;;341233;28;89590;-88
2022/12/10 00:36:49;;;;;;;22.25;12.75;;;3.20;99.90;3.60;98327.00;;;;342954;28;86012;-87
2022/12/10 00:37:01;;;;;;;20.62;13.02;;;3.20;99.90;3.60;98330.00;;;;342483;28;92855;-88
2022/12/10 00:37:13;;;;;;;20.80;13.43;;;3.20;99.90;3.60;98333.00;;;;342977;28;83424;-87
2022/12/10 00:37:25;;;;;;;20.60;13.52;;;3.20;99.90;3.60;98340.00;;;;342578;28;90484;-87
2022/12/10 00:37:37;;;;;;;20.48;13.75;;;3.20;99.90;3.70;98331.00;;;;341576;28;87378;-87
2022/12/10 00:37:48;;;;;;;20.33;13.43;;;3.20;99.90;3.60;98332.00;;;;339927;28;91723;-88
2022/12/10 00:38:00;;;;;;;20.35;13.32;;;3.20;99.90;3.60;98334.00;;;;340188;28;85847;-88
2022/12/10 00:38:12;;;;;;;19.75;12.25;;;3.20;99.90;3.60;98331.00;;;;339966;28;90560;-88
2022/12/10 00:38:24;;;;;;;21.10;12.18;;;3.20;99.90;3.60;98330.00;;;;341323;28;86109;-88
2022/12/10 00:38:36;;;;;;;22.10;12.48;;;3.20;99.90;3.60;98334.00;;;;343502;28;92425;-87
2022/12/10 00:38:48;;;;;;;21.42;13.15;;;3.20;99.90;3.70;98342.00;;;;340251;28;87104;-88
2022/12/10 00:39:00;;;;;;;21.00;12.73;;;3.20;99.90;3.70;98334.00;;;;342467;28;92465;-87
2022/12/10 00:39:14;;;;;;;18.73;12.43;;;3.20;99.90;3.70;98337.00;;;;340140;28;85976;-88
2022/12/10 00:39:26;;;;;;;19.45;12.55;;;3.20;99.90;3.60;98321.00;;;;341123;28;91038;-88
2022/12/10 00:39:38;;;;;;;21.80;13.23;;;3.20;99.90;3.60;98331.00;;;;340266;28;86323;-88
2022/12/10 00:39:51;;;;;;;23.15;13.80;;;3.30;99.90;3.60;98327.00;;;;341263;28;91550;-88
2022/12/10 00:40:04;;;;;;;24.08;15.18;;;3.20;99.90;3.70;98323.00;;;;340155;28;86522;-88
2022/12/10 00:40:16;;;;;;;24.13;15.60;;;3.20;99.90;3.70;98327.00;;;;342607;28;91465;-87
2022/12/10 00:40:28;;;;;;;22.00;14.18;;;3.20;99.90;3.70;98328.00;;;;342858;28;85945;-85
2022/12/10 00:40:40;;;;;;;20.90;13.90;;;3.20;99.90;3.70;98328.00;;;;341274;28;91949;-88
2022/12/10 00:40:52;;;;;;;20.45;14.00;;;3.20;99.90;3.70;98323.00;;;;340330;28;84439;-88
2022/12/10 00:41:04;;;;;;;21.92;14.48;;;3.30;99.90;3.70;98322.00;;;;341165;28;93041;-87
2022/12/10 00:41:16;;;;;;;21.50;14.30;;;3.30;99.90;3.70;98322.00;;;;341212;28;85199;-87
2022/12/10 00:41:28;;;;;;;21.10;13.70;;;3.20;99.90;3.80;98320.00;;;;341242;28;89496;-88
2022/12/10 00:41:40;;;;;;;20.15;13.38;;;3.20;99.90;3.80;98321.00;;;;341583;28;86967;-88
2022/12/10 00:41:52;;;;;;;20.33;13.18;;;3.30;99.90;3.80;98327.00;;;;341140;28;92142;-88
2022/12/10 00:42:04;;;;;;;22.13;13.57;;;3.30;99.90;3.80;98321.00;;;;341574;28;84745;-88
2022/12/10 00:42:16;;;;;;;22.70;13.90;;;3.30;99.90;3.80;98317.00;;;;339913;28;89581;-88
2022/12/10 00:42:28;;;;;;;22.65;13.88;;;3.30;99.90;3.80;98325.00;;;;338811;28;86938;-88
2022/12/10 00:42:39;;;;;;;22.65;13.85;;;3.30;99.90;3.70;98325.00;;;;341265;28;91747;-88
2022/12/10 00:42:51;;;;;;;23.58;14.68;;;3.30;99.90;3.70;98314.00;;;;342855;28;86754;-88
2022/12/10 00:43:03;;;;;;;20.50;13.52;;;3.30;99.90;3.70;98307.00;;;;342600;28;92774;-88
2022/12/10 00:43:15;;;;;;;21.17;12.75;;;3.30;99.90;3.70;98324.00;;;;341519;28;84747;-88
2022/12/10 00:43:27;;;;;;;20.17;12.50;;;3.30;99.90;3.70;98334.00;;;;342448;28;89344;-87
2022/12/10 00:43:39;;;;;;;21.10;12.85;;;3.30;99.90;3.70;98325.00;;;;341561;28;86039;-87
2022/12/10 00:43:50;;;;;;;20.40;13.15;;;3.30;99.90;3.70;98321.00;;;;338492;28;91223;-87
2022/12/10 00:44:02;;;;;;;20.92;13.77;;;3.30;99.90;3.80;98319.00;;;;342857;28;86754;-88
2022/12/10 00:44:15;;;;;;;22.55;14.32;;;3.30;99.90;3.80;98320.00;;;;341301;28;89044;-87
2022/12/10 00:44:27;;;;;;;21.73;13.95;;;3.30;99.90;3.70;98323.00;;;;338830;28;85896;-88
2022/12/10 00:44:38;;;;;;;19.88;13.00;;;3.30;99.90;3.80;98321.00;;;;342578;28;92554;-88
2022/12/10 00:44:50;;;;;;;19.45;12.30;;;3.30;99.90;3.80;98321.00;;;;341529;28;86941;-88
2022/12/10 00:45:03;;;;;;;20.58;12.23;;;3.30;99.90;3.80;98318.00;;;;341218;28;93378;-88
2022/12/10 00:45:16;;;;;;;22.10;13.12;;;3.40;99.90;3.80;98318.00;;;;344167;28;87367;-88
2022/12/10 00:45:27;;;;;;;21.45;13.57;;;3.40;99.90;3.90;98319.00;;;;341464;28;90900;-87
2022/12/10 00:45:39;;;;;;;20.92;13.10;;;3.40;99.90;3.90;98323.00;;;;341808;28;86533;-88
2022/12/10 00:45:51;;;;;;;21.40;13.40;;;3.40;99.90;3.90;98321.00;;;;341022;28;92076;-87
2022/12/10 00:46:03;;;;;;;20.85;13.52;;;3.40;99.90;3.90;98314.00;;;;341284;28;86165;-88
2022/12/10 00:46:16;;;;;;;21.42;13.35;;;3.40;99.90;3.90;98315.00;;;;339964;28;91584;-88
2022/12/10 00:46:28;;;;;;;21.70;12.80;;;3.40;99.90;3.90;98313.00;;;;341481;28;87670;-88
2022/12/10 00:46:40;;;;;;;22.25;12.50;;;3.40;99.90;3.90;98319.00;;;;342700;28;92184;-88
2022/12/10 00:46:52;;;;;;;20.63;12.55;;;3.40;99.90;4.00;98317.00;;;;342932;28;85147;-88
2022/12/10 00:47:04;;;;;;;20.92;13.32;;;3.40;99.90;3.80;98316.00;;;;344023;28;90321;-88
2022/12/10 00:47:16;;;;;;;22.20;13.55;;;3.40;99.90;3.80;98320.00;;;;341478;28;87263;-87
2022/12/10 00:47:27;;;;;;;21.77;13.48;;;3.40;99.90;3.80;98333.00;;;;339990;28;90750;-88
2022/12/10 00:47:39;;;;;;;22.17;13.73;;;3.40;99.90;3.80;98320.00;;;;340200;28;87145;-87
2022/12/10 00:47:51;;;;;;;19.70;12.82;;;3.40;99.90;3.80;98317.00;;;;341257;28;90730;-88
2022/12/10 00:48:03;;;;;;;19.85;12.40;;;3.40;99.90;3.80;98325.00;;;;340274;28;84776;-88
2022/12/10 00:48:15;;;;;;;20.02;12.65;;;3.40;99.90;3.90;98313.00;;;;341246;28;91912;-88
2022/12/10 00:48:27;;;;;;;21.13;13.45;;;3.40;99.90;3.90;98318.00;;;;340114;28;86404;-88
2022/12/10 00:48:40;;;;;;;21.60;13.82;;;3.40;99.90;3.90;98326.00;;;;338276;28;90772;-88
2022/12/10 00:48:52;;;;;;;22.73;13.38;;;3.40;99.90;3.80;98327.00;;;;340245;28;85877;-88
2022/12/10 00:49:04;;;;;;;22.42;13.68;;;3.40;99.90;3.90;98320.00;;;;337238;28;91838;-88
2022/12/10 00:49:16;;;;;;;22.67;13.85;;;3.40;99.90;3.90;98327.00;;;;340102;28;87067;-88
2022/12/10 00:49:28;;;;;;;21.90;13.32;;;3.40;99.90;4.00;98315.00;;;;342459;28;91621;-88
2022/12/10 00:49:39;;;;;;;21.15;12.95;;;3.40;99.90;4.00;98326.00;;;;341529;28;87155;-87
2022/12/10 00:49:51;;;;;;;20.98;13.23;;;3.50;99.90;3.90;98324.00;;;;341115;28;91027;-88
2022/12/10 00:50:03;;;;;;;20.52;13.32;;;3.50;99.90;4.00;98323.00;;;;341524;28;86216;-87
2022/12/10 00:50:16;;;;;;;19.92;12.57;;;3.50;99.90;4.10;98317.00;;;;339770;28;91022;-88
2022/12/10 00:50:27;;;;;;;21.73;13.05;;;3.50;99.90;4.00;98325.00;;;;341094;28;86087;-88
2022/12/10 00:50:39;;;;;;;22.42;13.75;;;3.50;99.90;4.10;98324.00;;;;341100;28;88277;-88
2022/12/10 00:50:56;;;;;;;19.63;13.10;;;3.50;99.90;3.90;98333.00;;;;342620;28;87389;-88
2022/12/10 00:51:12;;;;;;;21.50;13.38;;;3.50;99.90;4.10;98324.00;;;;342167;28;92857;-88
2022/12/10 00:51:25;;;;;;;23.50;14.52;;;3.50;99.90;4.10;98326.00;;;;341554;28;86043;-88
2022/12/10 00:51:37;;;;;;;24.04;15.18;;;3.50;99.90;4.10;98319.00;;;;341236;28;92395;-87
2022/12/10 00:51:49;;;;;;;22.73;14.25;;;3.60;99.90;4.20;98325.00;;;;340108;28;85524;-87
2022/12/10 00:52:01;;;;;;;21.63;13.45;;;3.60;99.90;4.20;98325.00;;;;339973;28;89146;-88
2022/12/10 00:52:12;;;;;;;22.30;13.38;;;3.60;99.90;4.30;98332.00;;;;340115;28;87198;-87
2022/12/10 00:52:24;;;;;;;24.20;14.05;;;3.60;99.90;4.30;98327.00;;;;342513;28;90816;-88
2022/12/10 00:52:36;;;;;;;21.55;13.32;;;3.60;99.90;4.30;98327.00;;;;340156;28;84313;-88
2022/12/10 00:52:48;;;;;;;20.05;12.93;;;3.70;99.90;4.20;98328.00;;;;343926;28;91742;-88
2022/12/10 00:53:02;;;;;;;18.42;12.68;;;3.70;99.90;4.10;98330.00;;;;340278;28;86103;-88
2022/12/10 00:53:14;;;;;;;19.22;13.06;;;3.70;99.90;4.20;98326.00;;;;343740;28;92561;-88
2022/12/10 00:53:26;;;;;;;20.40;13.73;;;3.70;99.90;4.10;98327.00;;;;342895;28;85294;-88
2022/12/10 00:53:39;;;;;;;19.67;13.32;;;3.70;99.90;4.00;98326.00;;;;342432;28;90210;-88
2022/12/10 00:53:52;;;;;;;18.63;13.10;;;3.70;99.90;3.90;98320.00;;;;342878;28;85027;-88
2022/12/10 00:54:04;;;;;;;19.40;13.05;;;3.70;99.90;4.00;98329.00;;;;342627;28;91712;-88
2022/12/10 00:54:16;;;;;;;20.35;13.38;;;3.60;99.90;4.10;98330.00;;;;341289;28;86669;-88
2022/12/10 00:54:28;;;;;;;20.35;13.55;;;3.60;99.90;3.90;98330.00;;;;341166;28;90826;-87
2022/12/10 00:54:40;;;;;;;20.95;13.23;;;3.70;99.90;3.80;98329.00;;;;341480;28;86990;-88
2022/12/10 00:54:52;;;;;;;22.72;13.50;;;3.60;99.90;3.90;98332.00;;;;341203;28;90899;-88
2022/12/10 00:55:04;;;;;;;23.77;13.82;;;3.60;99.90;4.00;98334.00;;;;341302;28;86405;-88
2022/12/10 00:55:16;;;;;;;21.90;13.57;;;3.60;99.90;4.00;98324.00;;;;342390;28;93014;-88
2022/12/10 00:55:28;;;;;;;20.65;13.13;;;3.60;99.90;4.10;98319.00;;;;342871;28;87387;-88
2022/12/10 00:55:40;;;;;;;21.55;13.65;;;3.60;99.90;4.00;98330.00;;;;341212;28;91538;-87
2022/12/10 00:55:52;;;;;;;21.70;13.60;;;3.70;99.90;4.10;98327.00;;;;341517;28;86931;-87
2022/12/10 00:56:05;;;;;;;20.52;12.93;;;3.70;99.90;4.00;98334.00;;;;341332;28;91728;-88